createdAt,value
2019-03-11T00:01:41.832Z,84.89
2019-03-11T00:04:12.158Z,84.52
2019-03-11T00:06:42.352Z,84.09
2019-03-11T00:09:11.796Z,84.05
2019-03-11T00:11:41.238Z,83.99
2019-03-11T00:14:10.715Z,83.76
2019-03-11T00:16:40.142Z,83.93
2019-03-11T00:19:10.525Z,83.32
2019-03-11T00:21:40.462Z,82.09
2019-03-11T00:24:09.937Z,80.95
2019-03-11T00:26:39.364Z,81.51
2019-03-11T00:29:08.815Z,82.39
2019-03-11T00:31:38.867Z,82.29
2019-03-11T00:34:08.589Z,82.61
2019-03-11T00:36:38.021Z,81.19
2019-03-11T00:39:07.467Z,80.97
2019-03-11T00:41:37.462Z,81.73
2019-03-11T00:44:06.907Z,82.72
2019-03-11T00:46:36.355Z,82.62
2019-03-11T00:49:06.169Z,82.55
2019-03-11T00:51:35.587Z,81.62
2019-03-11T00:54:05.415Z,82.07
2019-03-11T00:56:35.633Z,82.55
2019-03-11T00:59:05.090Z,82.39
2019-03-11T01:01:34.736Z,82.72
2019-03-11T01:04:04.445Z,82.52
2019-03-11T01:06:34.291Z,82.03
2019-03-11T01:09:04.665Z,82.30
2019-03-11T01:11:34.097Z,81.59
2019-03-11T01:14:03.539Z,81.88
2019-03-11T01:16:32.979Z,81.84
2019-03-11T01:19:02.430Z,82.08
2019-03-11T01:21:31.867Z,82.84
2019-03-11T01:24:01.336Z,83.40
2019-03-11T01:26:30.778Z,83.66
2019-03-11T01:29:00.232Z,84.64
2019-03-11T01:31:29.725Z,85.41
2019-03-11T01:33:59.176Z,85.13
2019-03-11T01:36:28.610Z,84.71
2019-03-11T01:38:58.337Z,84.71
2019-03-11T01:41:27.946Z,84.89
2019-03-11T01:43:57.422Z,85.19
2019-03-11T01:46:26.869Z,84.95
2019-03-11T01:48:56.666Z,84.79
2019-03-11T01:51:26.282Z,84.38
2019-03-11T01:53:55.739Z,83.72
2019-03-11T01:56:25.179Z,83.05
2019-03-11T01:58:54.639Z,82.43
2019-03-11T02:01:24.084Z,81.04
2019-03-11T02:03:53.728Z,81.64
2019-03-11T02:06:23.392Z,81.20
2019-03-11T02:08:52.993Z,79.50
2019-03-11T02:11:22.520Z,80.12
2019-03-11T02:13:52.165Z,78.47
2019-03-11T02:16:22.074Z,79.06
2019-03-11T02:18:51.889Z,79.37
2019-03-11T02:21:21.785Z,79.09
2019-03-11T02:23:51.674Z,79.27
2019-03-11T02:26:21.327Z,79.98
2019-03-11T02:28:51.037Z,80.09
2019-03-11T02:31:20.686Z,80.11
2019-03-11T02:33:50.289Z,79.65
2019-03-11T02:36:20.343Z,79.43
2019-03-11T02:38:49.869Z,78.89
2019-03-11T02:41:19.367Z,79.61
2019-03-11T02:43:49.482Z,78.86
2019-03-11T02:46:19.103Z,78.89
2019-03-11T02:48:48.745Z,77.82
2019-03-11T02:51:18.465Z,77.13
2019-03-11T02:53:47.964Z,76.74
2019-03-11T02:56:17.755Z,76.62
2019-03-11T02:58:47.644Z,76.21
2019-03-11T03:01:21.799Z,75.58
2019-03-11T03:03:58.968Z,75.17
2019-03-11T03:06:28.773Z,74.41
2019-03-11T03:08:58.274Z,73.53
2019-03-11T03:11:27.831Z,74.43
2019-03-11T03:13:57.586Z,73.84
2019-03-11T03:16:27.041Z,73.37
2019-03-11T03:18:56.794Z,71.81
2019-03-11T03:21:26.917Z,72.40
2019-03-11T03:23:56.353Z,72.27
2019-03-11T03:26:26.142Z,72.22
2019-03-11T03:28:55.588Z,71.12
2019-03-11T03:31:27.974Z,70.95
2019-03-11T03:34:08.938Z,70.99
2019-03-11T03:36:43.068Z,70.78
2019-03-11T03:39:21.397Z,71.19
2019-03-11T03:41:56.329Z,71.50
2019-03-11T03:44:33.526Z,71.48
2019-03-11T03:47:10.351Z,71.71
2019-03-11T03:49:45.431Z,71.00
2019-03-11T03:52:39.027Z,71.04
2019-03-11T03:55:14.392Z,71.55
2019-03-11T03:58:06.451Z,71.32
2019-03-11T04:00:42.701Z,71.25
2019-03-11T04:03:13.488Z,71.35
2019-03-11T04:05:55.946Z,70.25
2019-03-11T04:08:31.568Z,70.31
2019-03-11T04:11:08.760Z,70.16
2019-03-11T04:13:46.352Z,70.18
2019-03-11T04:16:26.117Z,69.99
2019-03-11T04:19:10.017Z,69.88
2019-03-11T04:21:45.432Z,69.48
2019-03-11T04:24:26.054Z,70.97
2019-03-11T04:27:04.821Z,69.83
2019-03-11T04:29:42.743Z,70.41
2019-03-11T04:32:17.153Z,69.85
2019-03-11T04:34:48.495Z,70.62
2019-03-11T04:40:26.995Z,70.75
2019-03-11T04:43:05.457Z,71.48
2019-03-11T04:45:40.731Z,71.50
2019-03-11T04:48:16.073Z,70.70
2019-03-11T04:51:16.519Z,71.07
2019-03-11T04:54:05.381Z,70.55
2019-03-11T04:56:43.647Z,70.75
2019-03-11T04:59:16.679Z,70.49
2019-03-11T05:01:56.243Z,70.41
2019-03-11T05:04:30.133Z,71.35
2019-03-11T05:07:02.838Z,71.08
2019-03-11T05:09:42.383Z,71.41
2019-03-11T05:12:14.981Z,71.65
2019-03-11T05:15:06.776Z,71.74
2019-03-11T05:17:25.001Z,71.26
2019-03-11T05:19:54.537Z,71.54
2019-03-11T05:22:35.814Z,70.90
2019-03-11T05:25:09.160Z,70.71
2019-03-11T05:27:55.495Z,70.34
2019-03-11T05:30:35.124Z,69.77
2019-03-11T05:33:21.097Z,69.24
2019-03-11T05:35:59.707Z,69.55
2019-03-11T05:38:36.089Z,69.35
2019-03-11T05:41:25.132Z,69.14
2019-03-11T05:43:59.694Z,68.78
2019-03-11T05:49:12.142Z,68.92
2019-03-11T05:51:55.795Z,69.27
2019-03-11T05:54:37.279Z,68.77
2019-03-11T05:57:16.970Z,70.79
2019-03-11T05:59:53.353Z,70.75
2019-03-11T06:02:24.696Z,70.61
2019-03-11T06:04:58.665Z,69.89
2019-03-11T06:07:29.825Z,70.70
2019-03-11T06:09:59.291Z,71.25
2019-03-11T06:12:28.790Z,68.90
2019-03-11T06:14:58.442Z,68.37
2019-03-11T06:17:28.104Z,68.03
2019-03-11T06:19:59.186Z,69.92
2019-03-11T06:22:29.106Z,68.17
2019-03-11T06:24:58.539Z,67.39
2019-03-11T06:27:27.993Z,67.68
2019-03-11T06:29:57.681Z,67.91
2019-03-11T06:32:27.171Z,66.76
2019-03-11T06:34:56.869Z,66.73
2019-03-11T06:37:26.347Z,66.72
2019-03-11T06:39:56.039Z,66.75
2019-03-11T06:42:25.509Z,66.55
2019-03-11T06:44:54.989Z,65.70
2019-03-11T06:47:24.428Z,65.44
2019-03-11T06:49:53.893Z,65.71
2019-03-11T06:52:23.326Z,65.18
2019-03-11T06:54:52.792Z,65.50
2019-03-11T06:57:22.600Z,65.50
2019-03-11T06:59:52.055Z,65.38
2019-03-11T07:02:21.783Z,65.70
2019-03-11T07:04:51.222Z,65.71
2019-03-11T07:07:20.743Z,65.32
2019-03-11T07:09:50.527Z,65.68
2019-03-11T07:12:20.168Z,65.71
2019-03-11T07:14:49.601Z,65.39
2019-03-11T07:17:19.319Z,64.66
2019-03-11T07:19:48.754Z,65.09
2019-03-11T07:22:18.215Z,65.29
2019-03-11T07:24:47.673Z,65.25
2019-03-11T07:27:17.103Z,65.71
2019-03-11T07:29:46.607Z,66.43
2019-03-11T07:32:16.078Z,66.95
2019-03-11T07:34:45.556Z,67.38
2019-03-11T07:37:15.040Z,66.89
2019-03-11T07:39:44.512Z,66.88
2019-03-11T07:42:14.115Z,67.20
2019-03-11T07:44:43.556Z,67.06
2019-03-11T07:47:12.982Z,67.25
2019-03-11T07:49:42.419Z,68.13
2019-03-11T07:52:11.864Z,67.44
2019-03-11T07:54:41.314Z,68.25
2019-03-11T07:57:11.241Z,68.44
2019-03-11T07:59:40.813Z,68.64
2019-03-11T08:02:10.547Z,68.26
2019-03-11T08:04:40.002Z,68.30
2019-03-11T08:07:09.457Z,68.93
2019-03-11T08:09:38.909Z,68.62
2019-03-11T08:12:08.344Z,68.46
2019-03-11T08:14:37.797Z,69.16
2019-03-11T08:17:07.244Z,68.94
2019-03-11T08:19:37.048Z,69.24
2019-03-11T08:22:06.486Z,69.11
2019-03-11T08:24:35.926Z,68.78
2019-03-11T08:27:05.368Z,68.41
2019-03-11T08:29:34.827Z,67.73
2019-03-11T08:32:04.276Z,68.03
2019-03-11T08:34:33.738Z,68.43
2019-03-11T08:37:03.490Z,69.40
2019-03-11T08:39:32.932Z,70.26
2019-03-11T08:42:02.380Z,72.76
2019-03-11T08:44:31.885Z,74.16
2019-03-11T08:47:01.358Z,73.49
2019-03-11T08:49:30.795Z,73.16
2019-03-11T08:52:00.515Z,72.78
2019-03-11T08:54:29.958Z,69.89
2019-03-11T08:56:59.864Z,68.32
2019-03-11T08:59:29.305Z,67.62
2019-03-11T09:01:58.763Z,68.16
2019-03-11T09:04:28.186Z,67.45
2019-03-11T09:06:57.643Z,66.64
2019-03-11T09:09:27.361Z,64.39
2019-03-11T09:11:57.195Z,62.67
2019-03-11T09:14:26.615Z,61.97
2019-03-11T09:16:56.068Z,59.08
2019-03-11T09:19:25.512Z,57.83
2019-03-11T09:21:55.215Z,55.69
2019-03-11T09:24:24.683Z,54.90
2019-03-11T09:26:54.413Z,53.99
2019-03-11T09:29:23.887Z,52.67
2019-03-11T09:31:53.728Z,50.62
2019-03-11T09:34:23.549Z,50.40
2019-03-11T09:36:53.031Z,50.07
2019-03-11T09:39:22.533Z,49.76
2019-03-11T09:41:51.981Z,50.00
2019-03-11T09:44:21.769Z,47.65
2019-03-11T09:46:51.207Z,45.02
2019-03-11T09:49:20.656Z,44.49
2019-03-11T09:51:50.110Z,43.41
2019-03-11T09:54:19.901Z,44.78
2019-03-11T09:56:49.373Z,44.49
2019-03-11T09:59:18.835Z,47.40
2019-03-11T10:01:48.288Z,46.61
2019-03-11T10:04:17.746Z,43.66
2019-03-11T10:06:47.205Z,46.13
2019-03-11T10:09:16.654Z,47.27
2019-03-11T10:11:46.130Z,47.01
2019-03-11T10:14:15.575Z,46.04
2019-03-11T10:16:45.011Z,47.49
2019-03-11T10:19:14.459Z,48.58
2019-03-11T10:21:43.893Z,50.05
2019-03-11T10:24:13.338Z,49.87
2019-03-11T10:26:42.783Z,50.59
2019-03-11T10:29:12.268Z,45.93
2019-03-11T10:31:41.709Z,47.59
2019-03-11T10:34:11.153Z,48.56
2019-03-11T10:36:40.597Z,47.60
2019-03-11T10:39:10.121Z,44.55
2019-03-11T10:41:39.631Z,46.53
2019-03-11T10:44:09.372Z,47.43
2019-03-11T10:46:38.837Z,44.85
2019-03-11T10:49:08.483Z,43.41
2019-03-11T10:51:37.923Z,41.62
2019-03-11T10:54:07.394Z,43.84
2019-03-11T10:56:37.087Z,45.58
2019-03-11T10:59:06.522Z,45.57
2019-03-11T11:01:36.011Z,43.38
2019-03-11T11:04:05.451Z,46.34
2019-03-11T11:06:34.904Z,44.33
2019-03-11T11:09:06.073Z,44.30
2019-03-11T11:11:36.441Z,42.57
2019-03-11T11:14:05.900Z,44.96
2019-03-11T11:16:35.321Z,46.12
2019-03-11T11:19:04.766Z,46.70
2019-03-11T11:21:34.199Z,47.09
2019-03-11T11:24:04.021Z,47.94
2019-03-11T11:26:34.043Z,51.95
2019-03-11T11:29:03.922Z,63.35
2019-03-11T11:31:33.364Z,67.06
2019-03-11T11:34:02.819Z,69.78
2019-03-11T11:36:32.253Z,70.11
2019-03-11T11:39:01.727Z,70.64
2019-03-11T11:41:31.161Z,68.92
2019-03-11T11:44:00.616Z,65.01
2019-03-11T11:46:30.055Z,61.27
2019-03-11T11:48:59.526Z,55.83
2019-03-11T11:51:28.969Z,49.45
2019-03-11T11:53:58.424Z,49.66
2019-03-11T11:56:27.946Z,49.61
2019-03-11T11:58:57.397Z,47.27
2019-03-11T12:01:26.848Z,50.72
2019-03-11T12:03:56.608Z,52.98
2019-03-11T12:06:26.046Z,54.55
2019-03-11T12:08:55.503Z,54.40
2019-03-11T12:11:24.936Z,54.17
2019-03-11T12:13:54.731Z,58.28
2019-03-11T12:16:24.181Z,60.89
2019-03-11T12:18:53.618Z,60.47
2019-03-11T12:21:23.473Z,59.42
2019-03-11T12:23:53.182Z,60.92
2019-03-11T12:26:22.624Z,60.98
2019-03-11T12:28:52.068Z,63.65
2019-03-11T12:31:21.912Z,65.23
2019-03-11T12:33:51.457Z,65.49
2019-03-11T12:36:20.910Z,65.90
2019-03-11T12:38:50.357Z,63.53
2019-03-11T12:41:19.869Z,63.80
2019-03-11T12:43:49.329Z,59.76
2019-03-11T12:46:18.802Z,56.50
2019-03-11T12:48:48.499Z,53.21
2019-03-11T12:51:17.935Z,52.15
2019-03-11T12:53:47.379Z,51.80
2019-03-11T12:56:17.104Z,52.19
2019-03-11T12:58:46.551Z,49.67
2019-03-11T13:01:16.017Z,50.32
2019-03-11T13:03:45.438Z,50.96
2019-03-11T13:06:14.895Z,50.42
2019-03-11T13:08:44.318Z,49.76
2019-03-11T13:11:13.757Z,51.96
2019-03-11T13:13:43.190Z,51.33
2019-03-11T13:16:12.638Z,48.97
2019-03-11T13:18:42.243Z,46.45
2019-03-11T13:21:18.323Z,46.19
2019-03-11T13:23:48.009Z,47.62
2019-03-11T13:26:17.462Z,46.70
2019-03-11T13:28:46.908Z,45.37
2019-03-11T13:31:16.387Z,45.09
2019-03-11T13:33:45.803Z,47.45
2019-03-11T13:36:15.649Z,45.50
2019-03-11T13:38:45.086Z,46.38
2019-03-11T13:41:14.548Z,47.74
2019-03-11T13:43:43.950Z,47.69
2019-03-11T13:46:13.416Z,49.61
2019-03-11T13:48:42.843Z,51.69
2019-03-11T13:51:12.301Z,56.04
2019-03-11T13:53:41.721Z,59.51
2019-03-11T13:56:11.229Z,61.55
2019-03-11T13:58:40.601Z,62.06
2019-03-11T14:01:10.057Z,61.53
2019-03-11T14:03:39.501Z,59.97
2019-03-11T14:06:08.949Z,59.09
2019-03-11T14:08:38.694Z,57.24
2019-03-11T14:11:08.148Z,57.34
2019-03-11T14:13:37.573Z,58.77
2019-03-11T14:16:07.309Z,58.51
2019-03-11T14:18:36.745Z,57.06
2019-03-11T14:21:06.183Z,57.77
2019-03-11T14:23:35.638Z,58.01
2019-03-11T14:26:05.069Z,57.11
2019-03-11T14:28:34.517Z,57.61
2019-03-11T14:31:05.310Z,57.25
2019-03-11T14:33:34.725Z,57.54
2019-03-11T14:36:04.226Z,57.08
2019-03-11T14:38:34.082Z,56.72
2019-03-11T14:41:03.512Z,56.37
2019-03-11T14:43:32.960Z,56.33
2019-03-11T14:46:02.463Z,57.16
2019-03-11T14:48:32.718Z,60.65
2019-03-11T14:51:02.227Z,62.66
2019-03-11T14:53:31.657Z,63.48
2019-03-11T14:56:01.082Z,65.07
2019-03-11T14:58:30.850Z,64.94
2019-03-11T15:01:00.309Z,65.62
2019-03-11T15:03:29.755Z,65.49
2019-03-11T15:05:59.563Z,66.61
2019-03-11T15:08:29.022Z,65.10
2019-03-11T15:10:58.443Z,65.07
2019-03-11T15:13:28.195Z,65.07
2019-03-11T15:15:57.708Z,65.25
2019-03-11T15:18:27.147Z,65.41
2019-03-11T15:20:56.578Z,64.07
2019-03-11T15:23:26.031Z,65.09
2019-03-11T15:25:55.456Z,65.66
2019-03-11T15:28:24.909Z,66.44
2019-03-11T15:30:54.344Z,66.52
2019-03-11T15:35:53.239Z,68.12
2019-03-11T15:38:22.674Z,69.18
2019-03-11T15:40:52.429Z,69.16
2019-03-11T15:43:21.871Z,67.77
2019-03-11T15:45:51.302Z,67.53
2019-03-11T15:48:21.056Z,67.02
2019-03-11T15:50:50.485Z,65.69
2019-03-11T15:53:19.931Z,65.98
2019-03-11T15:55:49.356Z,66.40
2019-03-11T15:58:18.814Z,67.27
2019-03-11T16:00:48.284Z,65.75
2019-03-11T16:03:18.081Z,66.30
2019-03-11T16:05:47.797Z,65.53
2019-03-11T16:08:17.234Z,66.47
2019-03-11T16:10:46.662Z,64.95
2019-03-11T16:13:16.186Z,65.41
2019-03-11T16:15:45.611Z,65.42
2019-03-11T16:18:15.120Z,65.66
2019-03-11T16:20:44.541Z,65.17
2019-03-11T16:23:14.064Z,64.70
2019-03-11T16:25:43.671Z,64.56
2019-03-11T16:28:13.127Z,64.42
2019-03-11T16:30:42.579Z,64.40
2019-03-11T16:33:12.027Z,64.32
2019-03-11T16:35:41.457Z,64.10
2019-03-11T16:38:11.160Z,64.61
2019-03-11T16:40:40.603Z,64.07
2019-03-11T16:43:10.045Z,65.02
2019-03-11T16:45:39.477Z,64.70
2019-03-11T16:48:08.934Z,65.14
2019-03-11T16:50:38.375Z,64.74
2019-03-11T16:53:07.837Z,65.23
2019-03-11T16:55:41.615Z,65.69
2019-03-11T16:58:11.037Z,65.94
2019-03-11T17:00:45.292Z,65.83
2019-03-11T17:03:15.007Z,66.19
2019-03-11T17:05:44.510Z,66.27
2019-03-11T17:08:13.965Z,66.42
2019-03-11T17:10:52.480Z,66.29
2019-03-11T17:13:21.928Z,66.50
2019-03-11T17:15:51.356Z,66.53
2019-03-11T17:18:20.793Z,66.05
2019-03-11T17:20:50.294Z,66.00
2019-03-11T17:23:19.734Z,65.91
2019-03-11T17:25:49.171Z,66.09
2019-03-11T17:28:18.609Z,65.54
2019-03-11T17:30:48.129Z,65.43
2019-03-11T17:33:17.839Z,66.62
2019-03-11T17:35:47.266Z,67.87
2019-03-11T17:38:16.698Z,68.99
2019-03-11T17:40:46.133Z,69.95
2019-03-11T17:43:16.029Z,69.92
2019-03-11T17:45:45.440Z,71.00
2019-03-11T17:48:14.887Z,70.25
2019-03-11T17:50:44.310Z,71.08
2019-03-11T17:53:19.787Z,71.83
2019-03-11T17:55:44.901Z,72.03
2019-03-11T17:58:14.350Z,72.37
2019-03-11T18:00:55.122Z,72.26
2019-03-11T18:03:16.879Z,73.42
2019-03-11T18:05:46.305Z,73.03
2019-03-11T18:08:15.746Z,73.43
2019-03-11T18:10:45.174Z,73.73
2019-03-11T18:13:14.601Z,74.12
2019-03-11T18:15:44.102Z,74.32
2019-03-11T18:18:13.486Z,74.59
2019-03-11T18:20:42.959Z,74.16
2019-03-11T18:23:12.428Z,73.79
2019-03-11T18:25:42.102Z,75.02
2019-03-11T18:28:11.806Z,74.55
2019-03-11T18:30:42.210Z,74.47
2019-03-11T18:33:11.668Z,76.04
2019-03-11T18:35:41.109Z,77.60
2019-03-11T18:38:10.544Z,79.42
2019-03-11T18:40:40.045Z,81.02
2019-03-11T18:43:19.806Z,81.69
2019-03-11T18:45:40.925Z,82.61
2019-03-11T18:48:10.633Z,83.67
2019-03-11T18:50:40.634Z,84.26
2019-03-11T18:53:10.074Z,84.66
2019-03-11T18:55:39.559Z,84.73
2019-03-11T18:58:08.981Z,85.77
2019-03-11T19:00:38.439Z,86.64
2019-03-11T19:03:08.162Z,86.97
2019-03-11T19:05:37.637Z,87.23
2019-03-11T19:08:07.171Z,87.33
2019-03-11T19:10:36.618Z,87.47
2019-03-11T19:13:06.086Z,87.38
2019-03-11T19:15:35.644Z,87.35
2019-03-11T19:18:05.445Z,86.99
2019-03-11T19:20:34.951Z,87.24
2019-03-11T19:23:04.436Z,87.73
2019-03-11T19:25:33.986Z,87.96
2019-03-11T19:28:03.407Z,88.12
2019-03-11T19:30:32.958Z,88.24
2019-03-11T19:33:02.467Z,88.56
2019-03-11T19:35:31.929Z,88.76
2019-03-11T19:38:01.415Z,88.75
2019-03-11T19:40:30.874Z,88.86
2019-03-11T19:43:00.347Z,88.98
2019-03-11T19:45:29.761Z,89.25
2019-03-11T19:47:59.226Z,89.23
2019-03-11T19:50:28.693Z,89.14
2019-03-11T19:52:59.466Z,89.13
2019-03-11T19:55:29.251Z,89.29
2019-03-11T19:57:58.665Z,89.29
2019-03-11T20:00:28.173Z,89.30
2019-03-11T20:02:57.599Z,89.19
2019-03-11T20:05:29.528Z,89.10
2019-03-11T20:07:59.030Z,89.03
2019-03-11T20:10:28.533Z,89.07
2019-03-11T20:12:58.151Z,89.16
2019-03-11T20:15:27.586Z,89.13
2019-03-11T20:17:57.031Z,88.88
2019-03-11T20:20:26.504Z,89.07
2019-03-11T20:22:56.033Z,89.16
2019-03-11T20:25:30.405Z,89.00
2019-03-11T20:28:00.331Z,88.71
2019-03-11T20:30:30.019Z,88.64
2019-03-11T20:32:59.509Z,88.68
2019-03-11T20:35:29.271Z,88.83
2019-03-11T20:37:58.686Z,89.02
2019-03-11T20:40:28.158Z,89.24
2019-03-11T20:42:57.610Z,89.42
2019-03-11T20:45:27.114Z,89.57
2019-03-11T20:47:56.691Z,89.63
2019-03-11T20:50:26.166Z,89.52
2019-03-11T20:52:55.612Z,89.40
2019-03-11T20:55:25.175Z,89.54
2019-03-11T20:57:54.717Z,89.58
2019-03-11T21:00:27.845Z,89.53
2019-03-11T21:02:59.906Z,89.21
2019-03-11T21:05:46.729Z,89.07
2019-03-11T21:08:16.149Z,88.95
2019-03-11T21:10:46.012Z,88.80
2019-03-11T21:13:15.741Z,88.63
2019-03-11T21:15:45.188Z,88.67
2019-03-11T21:18:14.713Z,88.42
2019-03-11T21:20:45.166Z,88.36
2019-03-11T21:23:14.708Z,87.89
2019-03-11T21:25:44.211Z,87.74
2019-03-11T21:28:13.997Z,88.02
2019-03-11T21:30:43.623Z,88.16
2019-03-11T21:33:13.085Z,87.96
2019-03-11T21:35:42.610Z,87.96
2019-03-11T21:38:12.093Z,87.75
2019-03-11T21:40:41.752Z,87.79
2019-03-11T21:43:11.285Z,88.13
2019-03-11T21:45:40.769Z,88.34
2019-03-11T21:48:10.252Z,88.15
2019-03-11T21:50:39.717Z,88.21
2019-03-11T21:53:09.231Z,88.28
2019-03-11T21:55:41.429Z,88.40
2019-03-11T21:58:13.489Z,88.47
2019-03-11T22:00:42.024Z,88.80
2019-03-11T22:03:11.759Z,88.98
2019-03-11T22:05:41.224Z,88.68
2019-03-11T22:08:10.694Z,88.63
2019-03-11T22:10:40.233Z,88.51
2019-03-11T22:13:10.007Z,88.70
2019-03-11T22:15:39.464Z,89.01
2019-03-11T22:18:08.920Z,89.22
2019-03-11T22:20:38.396Z,89.28
2019-03-11T22:23:07.853Z,89.41
2019-03-11T22:25:37.403Z,89.54
2019-03-11T22:28:06.879Z,89.63
2019-03-11T22:30:36.676Z,89.64
2019-03-11T22:33:06.126Z,89.70
2019-03-11T22:35:35.605Z,89.80
2019-03-11T22:38:05.051Z,89.95
2019-03-11T22:40:34.931Z,90.10
2019-03-11T22:43:04.372Z,90.20
2019-03-11T22:45:36.115Z,90.18
2019-03-11T22:48:05.569Z,90.16
2019-03-11T22:50:35.035Z,90.21
2019-03-11T22:53:04.481Z,90.23
2019-03-11T22:55:34.048Z,90.18
2019-03-11T22:58:03.483Z,90.18
2019-03-11T23:00:42.557Z,90.22
2019-03-11T23:03:12.273Z,90.32
2019-03-11T23:05:56.878Z,90.42
2019-03-11T23:08:13.225Z,90.52
2019-03-11T23:10:42.700Z,90.58
2019-03-11T23:13:12.160Z,90.64
2019-03-11T23:15:41.637Z,90.61
2019-03-11T23:18:11.085Z,90.53
2019-03-11T23:20:40.564Z,90.50
2019-03-11T23:23:10.011Z,90.38
2019-03-11T23:25:39.477Z,90.24
2019-03-11T23:28:09.076Z,90.16
2019-03-11T23:30:38.520Z,89.87
2019-03-11T23:33:08.000Z,89.82
2019-03-11T23:35:38.355Z,89.72
2019-03-11T23:38:07.827Z,89.64
2019-03-11T23:40:37.303Z,89.43
2019-03-11T23:43:07.114Z,89.31
2019-03-11T23:45:36.928Z,89.22
2019-03-11T23:48:06.474Z,89.11
2019-03-11T23:50:36.253Z,89.13
2019-03-11T23:53:06.062Z,89.20
2019-03-11T23:55:35.522Z,89.28
2019-03-11T23:58:05.368Z,89.38
